sensor_id;sensor_type;location;lat;lon;timestamp;P1;durP1;ratioP1;P2;durP2;ratioP2
78646;SDS011;67961;43.460;3.762;2023-02-28T00:00:32;5.68;;;3.40;;
78646;SDS011;67961;43.460;3.762;2023-02-28T00:02:59;4.45;;;3.42;;
78646;SDS011;67961;43.460;3.762;2023-02-28T00:05:25;4.70;;;3.45;;
78646;SDS011;67961;43.460;3.762;2023-02-28T00:07:51;4.88;;;3.60;;
78646;SDS011;67961;43.460;3.762;2023-02-28T00:10:21;5.88;;;3.60;;
78646;SDS011;67961;43.460;3.762;2023-02-28T00:12:52;5.40;;;3.72;;
78646;SDS011;67961;43.460;3.762;2023-02-28T00:15:18;5.18;;;3.53;;
78646;SDS011;67961;43.460;3.762;2023-02-28T00:17:45;4.70;;;2.83;;
78646;SDS011;67961;43.460;3.762;2023-02-28T00:20:12;4.63;;;3.45;;
78646;SDS011;67961;43.460;3.762;2023-02-28T00:22:39;5.50;;;3.33;;
78646;SDS011;67961;43.460;3.762;2023-02-28T00:25:06;4.00;;;3.20;;
78646;SDS011;67961;43.460;3.762;2023-02-28T00:27:32;7.22;;;4.28;;
78646;SDS011;67961;43.460;3.762;2023-02-28T00:29:58;5.38;;;3.47;;
78646;SDS011;67961;43.460;3.762;2023-02-28T00:32:24;4.38;;;3.13;;
78646;SDS011;67961;43.460;3.762;2023-02-28T00:34:50;6.07;;;3.90;;
78646;SDS011;67961;43.460;3.762;2023-02-28T00:37:16;4.50;;;3.38;;
78646;SDS011;67961;43.460;3.762;2023-02-28T00:39:42;5.30;;;3.63;;
78646;SDS011;67961;43.460;3.762;2023-02-28T00:42:08;5.03;;;3.50;;
78646;SDS011;67961;43.460;3.762;2023-02-28T00:44:34;8.32;;;3.70;;
78646;SDS011;67961;43.460;3.762;2023-02-28T00:47:00;5.50;;;3.47;;
78646;SDS011;67961;43.460;3.762;2023-02-28T00:49:27;4.82;;;3.42;;
78646;SDS011;67961;43.460;3.762;2023-02-28T00:51:54;6.85;;;3.53;;
78646;SDS011;67961;43.460;3.762;2023-02-28T00:54:20;5.60;;;3.55;;
78646;SDS011;67961;43.460;3.762;2023-02-28T00:56:47;5.25;;;3.30;;
78646;SDS011;67961;43.460;3.762;2023-02-28T00:59:13;5.22;;;3.80;;
78646;SDS011;67961;43.460;3.762;2023-02-28T01:01:39;5.55;;;3.55;;
78646;SDS011;67961;43.460;3.762;2023-02-28T01:04:05;5.32;;;3.35;;
78646;SDS011;67961;43.460;3.762;2023-02-28T01:06:31;5.63;;;3.38;;
78646;SDS011;67961;43.460;3.762;2023-02-28T01:08:57;5.28;;;3.58;;
78646;SDS011;67961;43.460;3.762;2023-02-28T01:11:24;7.57;;;3.55;;
78646;SDS011;67961;43.460;3.762;2023-02-28T01:13:50;4.93;;;3.60;;
78646;SDS011;67961;43.460;3.762;2023-02-28T01:16:16;5.32;;;3.60;;
78646;SDS011;67961;43.460;3.762;2023-02-28T01:18:42;5.57;;;3.50;;
78646;SDS011;67961;43.460;3.762;2023-02-28T01:21:13;5.53;;;3.88;;
78646;SDS011;67961;43.460;3.762;2023-02-28T01:23:40;6.00;;;4.00;;
78646;SDS011;67961;43.460;3.762;2023-02-28T01:26:16;5.20;;;3.40;;
78646;SDS011;67961;43.460;3.762;2023-02-28T01:28:43;6.18;;;4.00;;
78646;SDS011;67961;43.460;3.762;2023-02-28T01:31:09;6.18;;;4.03;;
78646;SDS011;67961;43.460;3.762;2023-02-28T01:33:35;5.50;;;3.90;;
78646;SDS011;67961;43.460;3.762;2023-02-28T01:36:03;5.18;;;3.30;;
78646;SDS011;67961;43.460;3.762;2023-02-28T01:38:30;5.47;;;3.70;;
78646;SDS011;67961;43.460;3.762;2023-02-28T01:40:56;5.10;;;3.67;;
78646;SDS011;67961;43.460;3.762;2023-02-28T01:43:32;5.95;;;3.65;;
78646;SDS011;67961;43.460;3.762;2023-02-28T01:46:17;5.75;;;3.72;;
78646;SDS011;67961;43.460;3.762;2023-02-28T01:48:48;4.93;;;3.83;;
78646;SDS011;67961;43.460;3.762;2023-02-28T01:51:15;5.05;;;3.67;;
78646;SDS011;67961;43.460;3.762;2023-02-28T01:53:43;5.35;;;3.40;;
78646;SDS011;67961;43.460;3.762;2023-02-28T01:56:10;5.40;;;3.75;;
78646;SDS011;67961;43.460;3.762;2023-02-28T01:58:37;5.97;;;4.13;;
78646;SDS011;67961;43.460;3.762;2023-02-28T02:01:03;4.43;;;3.40;;
78646;SDS011;67961;43.460;3.762;2023-02-28T02:03:30;5.35;;;3.92;;
78646;SDS011;67961;43.460;3.762;2023-02-28T02:05:56;4.95;;;3.83;;
78646;SDS011;67961;43.460;3.762;2023-02-28T02:08:23;6.80;;;4.28;;
78646;SDS011;67961;43.460;3.762;2023-02-28T02:10:58;8.60;;;4.40;;
78646;SDS011;67961;43.460;3.762;2023-02-28T02:15:57;6.03;;;4.32;;
78646;SDS011;67961;43.460;3.762;2023-02-28T02:23:30;6.28;;;4.25;;
78646;SDS011;67961;43.460;3.762;2023-02-28T02:33:38;6.60;;;4.40;;
78646;SDS011;67961;43.460;3.762;2023-02-28T02:36:13;4.75;;;3.95;;
78646;SDS011;67961;43.460;3.762;2023-02-28T02:38:47;5.70;;;4.20;;
78646;SDS011;67961;43.460;3.762;2023-02-28T02:41:17;6.25;;;4.57;;
78646;SDS011;67961;43.460;3.762;2023-02-28T02:46:30;6.95;;;4.68;;
78646;SDS011;67961;43.460;3.762;2023-02-28T02:48:59;6.80;;;4.63;;
78646;SDS011;67961;43.460;3.762;2023-02-28T02:51:26;6.70;;;4.72;;
78646;SDS011;67961;43.460;3.762;2023-02-28T02:54:05;5.72;;;4.13;;
78646;SDS011;67961;43.460;3.762;2023-02-28T02:56:33;8.25;;;4.45;;
78646;SDS011;67961;43.460;3.762;2023-02-28T02:59:01;7.28;;;4.32;;
78646;SDS011;67961;43.460;3.762;2023-02-28T03:01:28;6.80;;;4.60;;
78646;SDS011;67961;43.460;3.762;2023-02-28T03:03:55;9.30;;;4.22;;
78646;SDS011;67961;43.460;3.762;2023-02-28T03:06:23;6.68;;;4.30;;
78646;SDS011;67961;43.460;3.762;2023-02-28T03:08:49;6.55;;;4.50;;
78646;SDS011;67961;43.460;3.762;2023-02-28T03:11:15;9.98;;;5.03;;
78646;SDS011;67961;43.460;3.762;2023-02-28T03:13:44;5.72;;;4.18;;
78646;SDS011;67961;43.460;3.762;2023-02-28T03:26:49;5.68;;;4.07;;
78646;SDS011;67961;43.460;3.762;2023-02-28T03:29:22;6.50;;;5.30;;
78646;SDS011;67961;43.460;3.762;2023-02-28T03:34:22;6.80;;;4.72;;
78646;SDS011;67961;43.460;3.762;2023-02-28T03:36:52;5.53;;;4.03;;
78646;SDS011;67961;43.460;3.762;2023-02-28T03:39:20;5.43;;;4.20;;
78646;SDS011;67961;43.460;3.762;2023-02-28T03:41:57;6.03;;;4.40;;
78646;SDS011;67961;43.460;3.762;2023-02-28T03:44:26;5.82;;;4.38;;
78646;SDS011;67961;43.460;3.762;2023-02-28T03:46:59;7.10;;;4.32;;
78646;SDS011;67961;43.460;3.762;2023-02-28T03:49:32;5.28;;;4.05;;
78646;SDS011;67961;43.460;3.762;2023-02-28T03:52:01;6.25;;;4.28;;
78646;SDS011;67961;43.460;3.762;2023-02-28T03:54:30;6.68;;;3.95;;
78646;SDS011;67961;43.460;3.762;2023-02-28T03:57:02;5.53;;;4.15;;
78646;SDS011;67961;43.460;3.762;2023-02-28T03:59:43;7.53;;;4.15;;
78646;SDS011;67961;43.460;3.762;2023-02-28T04:02:11;7.05;;;4.75;;
78646;SDS011;67961;43.460;3.762;2023-02-28T04:04:37;6.45;;;4.60;;
78646;SDS011;67961;43.460;3.762;2023-02-28T04:07:07;5.32;;;4.25;;
78646;SDS011;67961;43.460;3.762;2023-02-28T04:09:34;6.70;;;4.38;;
78646;SDS011;67961;43.460;3.762;2023-02-28T04:12:00;7.15;;;4.30;;
78646;SDS011;67961;43.460;3.762;2023-02-28T04:14:26;6.97;;;4.72;;
78646;SDS011;67961;43.460;3.762;2023-02-28T04:16:52;5.72;;;4.13;;
78646;SDS011;67961;43.460;3.762;2023-02-28T04:19:18;8.25;;;3.90;;
78646;SDS011;67961;43.460;3.762;2023-02-28T04:21:45;5.72;;;3.90;;
78646;SDS011;67961;43.460;3.762;2023-02-28T04:24:13;6.25;;;4.50;;
78646;SDS011;67961;43.460;3.762;2023-02-28T04:26:40;5.40;;;4.03;;
78646;SDS011;67961;43.460;3.762;2023-02-28T04:29:08;6.35;;;4.30;;
78646;SDS011;67961;43.460;3.762;2023-02-28T04:31:35;6.45;;;4.68;;
78646;SDS011;67961;43.460;3.762;2023-02-28T04:34:01;6.35;;;4.05;;
78646;SDS011;67961;43.460;3.762;2023-02-28T04:36:27;6.05;;;4.28;;
78646;SDS011;67961;43.460;3.762;2023-02-28T04:38:53;5.85;;;4.00;;
78646;SDS011;67961;43.460;3.762;2023-02-28T04:41:19;9.95;;;4.47;;
78646;SDS011;67961;43.460;3.762;2023-02-28T04:43:45;6.45;;;3.97;;
78646;SDS011;67961;43.460;3.762;2023-02-28T04:46:11;6.72;;;4.30;;
78646;SDS011;67961;43.460;3.762;2023-02-28T04:48:38;6.43;;;4.32;;
78646;SDS011;67961;43.460;3.762;2023-02-28T04:51:05;6.10;;;4.22;;
78646;SDS011;67961;43.460;3.762;2023-02-28T04:53:31;7.68;;;4.78;;
78646;SDS011;67961;43.460;3.762;2023-02-28T04:55:58;6.40;;;4.35;;
78646;SDS011;67961;43.460;3.762;2023-02-28T04:58:24;6.10;;;4.13;;
78646;SDS011;67961;43.460;3.762;2023-02-28T05:00:51;5.82;;;4.32;;
78646;SDS011;67961;43.460;3.762;2023-02-28T05:03:17;6.25;;;4.60;;
78646;SDS011;67961;43.460;3.762;2023-02-28T05:05:43;6.72;;;4.40;;
78646;SDS011;67961;43.460;3.762;2023-02-28T05:08:09;5.95;;;4.28;;
78646;SDS011;67961;43.460;3.762;2023-02-28T05:10:36;5.53;;;4.38;;
78646;SDS011;67961;43.460;3.762;2023-02-28T05:13:02;6.60;;;4.93;;
78646;SDS011;67961;43.460;3.762;2023-02-28T05:15:28;6.35;;;4.60;;
78646;SDS011;67961;43.460;3.762;2023-02-28T05:17:54;9.07;;;5.00;;
78646;SDS011;67961;43.460;3.762;2023-02-28T05:20:20;5.53;;;4.40;;
78646;SDS011;67961;43.460;3.762;2023-02-28T05:22:47;8.88;;;5.10;;
78646;SDS011;67961;43.460;3.762;2023-02-28T05:25:14;7.93;;;5.93;;
78646;SDS011;67961;43.460;3.762;2023-02-28T05:27:41;8.23;;;5.15;;
78646;SDS011;67961;43.460;3.762;2023-02-28T05:30:08;6.28;;;4.78;;
78646;SDS011;67961;43.460;3.762;2023-02-28T05:32:36;7.53;;;5.68;;
78646;SDS011;67961;43.460;3.762;2023-02-28T05:35:02;8.98;;;5.88;;
78646;SDS011;67961;43.460;3.762;2023-02-28T05:37:28;8.60;;;5.72;;
78646;SDS011;67961;43.460;3.762;2023-02-28T05:39:54;6.18;;;5.03;;
78646;SDS011;67961;43.460;3.762;2023-02-28T05:42:20;7.15;;;5.50;;
78646;SDS011;67961;43.460;3.762;2023-02-28T05:44:46;6.45;;;5.15;;
78646;SDS011;67961;43.460;3.762;2023-02-28T05:47:13;6.93;;;4.82;;
78646;SDS011;67961;43.460;3.762;2023-02-28T05:49:40;8.25;;;5.75;;
78646;SDS011;67961;43.460;3.762;2023-02-28T05:52:07;6.30;;;4.75;;
78646;SDS011;67961;43.460;3.762;2023-02-28T05:54:33;6.40;;;4.80;;
78646;SDS011;67961;43.460;3.762;2023-02-28T05:56:59;7.35;;;4.90;;
78646;SDS011;67961;43.460;3.762;2023-02-28T05:59:25;7.63;;;5.38;;
78646;SDS011;67961;43.460;3.762;2023-02-28T06:01:52;7.07;;;5.32;;
78646;SDS011;67961;43.460;3.762;2023-02-28T06:04:19;6.75;;;5.22;;
78646;SDS011;67961;43.460;3.762;2023-02-28T06:06:45;6.60;;;4.90;;
78646;SDS011;67961;43.460;3.762;2023-02-28T06:09:12;6.18;;;4.68;;
78646;SDS011;67961;43.460;3.762;2023-02-28T06:11:38;7.95;;;5.20;;
78646;SDS011;67961;43.460;3.762;2023-02-28T06:14:04;7.80;;;5.10;;
78646;SDS011;67961;43.460;3.762;2023-02-28T06:16:32;6.35;;;4.75;;
78646;SDS011;67961;43.460;3.762;2023-02-28T06:18:59;7.65;;;5.22;;
78646;SDS011;67961;43.460;3.762;2023-02-28T06:21:25;10.18;;;7.38;;
78646;SDS011;67961;43.460;3.762;2023-02-28T06:23:52;6.97;;;5.03;;
78646;SDS011;67961;43.460;3.762;2023-02-28T06:26:19;7.22;;;4.90;;
78646;SDS011;67961;43.460;3.762;2023-02-28T06:28:45;6.28;;;4.80;;
78646;SDS011;67961;43.460;3.762;2023-02-28T06:31:12;7.22;;;5.30;;
78646;SDS011;67961;43.460;3.762;2023-02-28T06:33:40;7.68;;;4.97;;
78646;SDS011;67961;43.460;3.762;2023-02-28T06:36:06;7.05;;;4.75;;
78646;SDS011;67961;43.460;3.762;2023-02-28T06:38:33;7.28;;;4.80;;
78646;SDS011;67961;43.460;3.762;2023-02-28T06:40:59;5.97;;;4.68;;
78646;SDS011;67961;43.460;3.762;2023-02-28T06:43:30;6.32;;;5.07;;
78646;SDS011;67961;43.460;3.762;2023-02-28T06:45:57;6.13;;;4.68;;
78646;SDS011;67961;43.460;3.762;2023-02-28T06:48:23;8.10;;;5.05;;
78646;SDS011;67961;43.460;3.762;2023-02-28T06:50:49;7.15;;;5.35;;
78646;SDS011;67961;43.460;3.762;2023-02-28T06:53:15;6.03;;;4.07;;
78646;SDS011;67961;43.460;3.762;2023-02-28T06:55:41;5.75;;;4.35;;
78646;SDS011;67961;43.460;3.762;2023-02-28T06:58:08;5.90;;;4.72;;
78646;SDS011;67961;43.460;3.762;2023-02-28T07:00:41;7.85;;;4.80;;
78646;SDS011;67961;43.460;3.762;2023-02-28T07:03:08;8.18;;;5.22;;
78646;SDS011;67961;43.460;3.762;2023-02-28T07:05:35;7.55;;;5.25;;
78646;SDS011;67961;43.460;3.762;2023-02-28T07:08:01;7.75;;;4.88;;
78646;SDS011;67961;43.460;3.762;2023-02-28T07:10:28;6.78;;;4.75;;
78646;SDS011;67961;43.460;3.762;2023-02-28T07:12:54;7.80;;;4.53;;
78646;SDS011;67961;43.460;3.762;2023-02-28T07:15:20;6.90;;;4.95;;
78646;SDS011;67961;43.460;3.762;2023-02-28T07:17:46;6.35;;;4.38;;
78646;SDS011;67961;43.460;3.762;2023-02-28T07:20:12;9.85;;;4.53;;
78646;SDS011;67961;43.460;3.762;2023-02-28T07:22:38;7.40;;;4.95;;
78646;SDS011;67961;43.460;3.762;2023-02-28T07:25:05;7.15;;;4.60;;
78646;SDS011;67961;43.460;3.762;2023-02-28T07:27:31;7.43;;;5.18;;
78646;SDS011;67961;43.460;3.762;2023-02-28T07:29:57;6.97;;;5.30;;
78646;SDS011;67961;43.460;3.762;2023-02-28T07:32:26;7.53;;;4.78;;
78646;SDS011;67961;43.460;3.762;2023-02-28T07:34:53;6.15;;;4.72;;
78646;SDS011;67961;43.460;3.762;2023-02-28T07:37:19;6.85;;;4.65;;
78646;SDS011;67961;43.460;3.762;2023-02-28T07:39:45;7.55;;;5.10;;
78646;SDS011;67961;43.460;3.762;2023-02-28T07:42:11;7.22;;;4.90;;
78646;SDS011;67961;43.460;3.762;2023-02-28T07:44:38;6.93;;;5.10;;
78646;SDS011;67961;43.460;3.762;2023-02-28T07:47:08;7.22;;;4.85;;
78646;SDS011;67961;43.460;3.762;2023-02-28T07:49:35;7.03;;;4.88;;
78646;SDS011;67961;43.460;3.762;2023-02-28T07:52:02;6.53;;;4.72;;
78646;SDS011;67961;43.460;3.762;2023-02-28T07:54:28;7.63;;;4.82;;
78646;SDS011;67961;43.460;3.762;2023-02-28T07:56:54;6.45;;;4.95;;
78646;SDS011;67961;43.460;3.762;2023-02-28T07:59:20;9.38;;;5.60;;
78646;SDS011;67961;43.460;3.762;2023-02-28T08:01:46;8.88;;;5.50;;
78646;SDS011;67961;43.460;3.762;2023-02-28T08:04:15;6.38;;;4.78;;
78646;SDS011;67961;43.460;3.762;2023-02-28T08:06:41;6.60;;;5.18;;
78646;SDS011;67961;43.460;3.762;2023-02-28T08:09:07;6.28;;;5.22;;
78646;SDS011;67961;43.460;3.762;2023-02-28T08:11:33;7.85;;;5.00;;
78646;SDS011;67961;43.460;3.762;2023-02-28T08:13:59;6.45;;;4.72;;
78646;SDS011;67961;43.460;3.762;2023-02-28T08:16:25;7.03;;;4.72;;
78646;SDS011;67961;43.460;3.762;2023-02-28T08:18:51;7.80;;;5.45;;
78646;SDS011;67961;43.460;3.762;2023-02-28T08:21:18;8.48;;;4.90;;
78646;SDS011;67961;43.460;3.762;2023-02-28T08:23:48;8.00;;;5.07;;
78646;SDS011;67961;43.460;3.762;2023-02-28T08:26:15;7.30;;;4.68;;
78646;SDS011;67961;43.460;3.762;2023-02-28T08:28:41;9.10;;;5.75;;
78646;SDS011;67961;43.460;3.762;2023-02-28T08:31:08;7.30;;;5.05;;
78646;SDS011;67961;43.460;3.762;2023-02-28T08:33:35;6.70;;;4.95;;
78646;SDS011;67961;43.460;3.762;2023-02-28T08:36:01;8.00;;;5.30;;
78646;SDS011;67961;43.460;3.762;2023-02-28T08:38:27;7.47;;;5.40;;
78646;SDS011;67961;43.460;3.762;2023-02-28T08:40:59;6.22;;;4.60;;
78646;SDS011;67961;43.460;3.762;2023-02-28T08:43:26;6.68;;;4.88;;
78646;SDS011;67961;43.460;3.762;2023-02-28T08:45:52;6.82;;;4.85;;
78646;SDS011;67961;43.460;3.762;2023-02-28T08:48:19;6.93;;;5.32;;
78646;SDS011;67961;43.460;3.762;2023-02-28T08:50:54;8.07;;;5.00;;
78646;SDS011;67961;43.460;3.762;2023-02-28T08:53:20;8.27;;;5.78;;
78646;SDS011;67961;43.460;3.762;2023-02-28T08:55:46;7.65;;;5.30;;
78646;SDS011;67961;43.460;3.762;2023-02-28T08:58:12;6.32;;;4.80;;
78646;SDS011;67961;43.460;3.762;2023-02-28T09:00:38;7.38;;;5.07;;
78646;SDS011;67961;43.460;3.762;2023-02-28T09:03:04;6.93;;;5.30;;
78646;SDS011;67961;43.460;3.762;2023-02-28T09:05:30;6.18;;;4.78;;
78646;SDS011;67961;43.460;3.762;2023-02-28T09:07:56;7.03;;;4.90;;
78646;SDS011;67961;43.460;3.762;2023-02-28T09:10:22;7.25;;;4.97;;
78646;SDS011;67961;43.460;3.762;2023-02-28T09:12:48;6.40;;;5.10;;
78646;SDS011;67961;43.460;3.762;2023-02-28T09:15:14;8.77;;;5.00;;
78646;SDS011;67961;43.460;3.762;2023-02-28T09:17:40;6.78;;;4.88;;
78646;SDS011;67961;43.460;3.762;2023-02-28T09:20:07;6.88;;;4.50;;
78646;SDS011;67961;43.460;3.762;2023-02-28T09:22:33;6.38;;;5.10;;
78646;SDS011;67961;43.460;3.762;2023-02-28T09:24:59;6.57;;;5.15;;
78646;SDS011;67961;43.460;3.762;2023-02-28T09:27:25;6.25;;;4.60;;
78646;SDS011;67961;43.460;3.762;2023-02-28T09:29:51;7.57;;;4.97;;
78646;SDS011;67961;43.460;3.762;2023-02-28T09:32:17;7.38;;;4.80;;
78646;SDS011;67961;43.460;3.762;2023-02-28T09:34:44;8.32;;;5.05;;
78646;SDS011;67961;43.460;3.762;2023-02-28T09:37:10;6.80;;;4.80;;
78646;SDS011;67961;43.460;3.762;2023-02-28T09:39:36;8.85;;;5.35;;
78646;SDS011;67961;43.460;3.762;2023-02-28T09:42:02;7.55;;;4.65;;
78646;SDS011;67961;43.460;3.762;2023-02-28T09:44:33;7.28;;;5.20;;
78646;SDS011;67961;43.460;3.762;2023-02-28T09:47:01;5.68;;;4.32;;
78646;SDS011;67961;43.460;3.762;2023-02-28T09:49:34;6.28;;;4.25;;
78646;SDS011;67961;43.460;3.762;2023-02-28T09:52:05;7.50;;;4.63;;
78646;SDS011;67961;43.460;3.762;2023-02-28T09:54:34;6.95;;;4.53;;
78646;SDS011;67961;43.460;3.762;2023-02-28T09:57:01;8.25;;;5.22;;
78646;SDS011;67961;43.460;3.762;2023-02-28T10:02:35;8.07;;;4.32;;
78646;SDS011;67961;43.460;3.762;2023-02-28T10:13:01;5.25;;;4.00;;
78646;SDS011;67961;43.460;3.762;2023-02-28T10:15:29;6.43;;;4.35;;
78646;SDS011;67961;43.460;3.762;2023-02-28T10:17:58;5.72;;;4.57;;
78646;SDS011;67961;43.460;3.762;2023-02-28T10:20:24;6.03;;;4.30;;
78646;SDS011;67961;43.460;3.762;2023-02-28T10:23:02;5.05;;;3.97;;
78646;SDS011;67961;43.460;3.762;2023-02-28T10:25:32;7.30;;;5.00;;
78646;SDS011;67961;43.460;3.762;2023-02-28T10:28:01;5.25;;;4.40;;
78646;SDS011;67961;43.460;3.762;2023-02-28T10:30:27;7.18;;;4.80;;
78646;SDS011;67961;43.460;3.762;2023-02-28T10:32:53;7.43;;;5.05;;
78646;SDS011;67961;43.460;3.762;2023-02-28T10:35:24;7.25;;;4.95;;
78646;SDS011;67961;43.460;3.762;2023-02-28T10:37:53;7.38;;;4.82;;
78646;SDS011;67961;43.460;3.762;2023-02-28T10:42:54;6.45;;;4.93;;
78646;SDS011;67961;43.460;3.762;2023-02-28T10:45:21;7.32;;;5.00;;
78646;SDS011;67961;43.460;3.762;2023-02-28T11:00:58;6.10;;;4.10;;
78646;SDS011;67961;43.460;3.762;2023-02-28T11:03:32;6.40;;;4.18;;
78646;SDS011;67961;43.460;3.762;2023-02-28T11:05:58;8.82;;;4.70;;
78646;SDS011;67961;43.460;3.762;2023-02-28T11:08:29;7.07;;;4.57;;
78646;SDS011;67961;43.460;3.762;2023-02-28T11:10:59;5.85;;;4.50;;
78646;SDS011;67961;43.460;3.762;2023-02-28T11:13:27;6.28;;;5.18;;
78646;SDS011;67961;43.460;3.762;2023-02-28T11:15:58;6.78;;;4.60;;
78646;SDS011;67961;43.460;3.762;2023-02-28T11:20:55;6.25;;;4.85;;
78646;SDS011;67961;43.460;3.762;2023-02-28T11:23:22;6.78;;;4.88;;
78646;SDS011;67961;43.460;3.762;2023-02-28T11:25:51;7.65;;;4.55;;
78646;SDS011;67961;43.460;3.762;2023-02-28T11:28:26;6.55;;;5.20;;
78646;SDS011;67961;43.460;3.762;2023-02-28T11:33:55;5.80;;;4.32;;
78646;SDS011;67961;43.460;3.762;2023-02-28T11:36:22;8.38;;;5.35;;
78646;SDS011;67961;43.460;3.762;2023-02-28T11:38:55;7.15;;;4.75;;
78646;SDS011;67961;43.460;3.762;2023-02-28T11:57:00;6.95;;;4.60;;
78646;SDS011;67961;43.460;3.762;2023-02-28T12:04:29;6.40;;;5.10;;
78646;SDS011;67961;43.460;3.762;2023-02-28T12:12:19;6.07;;;4.40;;
78646;SDS011;67961;43.460;3.762;2023-02-28T12:14:56;5.88;;;4.47;;
78646;SDS011;67961;43.460;3.762;2023-02-28T12:17:27;5.53;;;4.20;;
78646;SDS011;67961;43.460;3.762;2023-02-28T12:27:37;7.20;;;4.45;;
78646;SDS011;67961;43.460;3.762;2023-02-28T12:30:06;5.90;;;4.68;;
78646;SDS011;67961;43.460;3.762;2023-02-28T12:32:41;6.55;;;4.47;;
78646;SDS011;67961;43.460;3.762;2023-02-28T12:40:04;6.32;;;4.68;;
78646;SDS011;67961;43.460;3.762;2023-02-28T12:42:32;6.32;;;4.72;;
78646;SDS011;67961;43.460;3.762;2023-02-28T12:45:01;6.88;;;4.72;;
78646;SDS011;67961;43.460;3.762;2023-02-28T12:47:28;5.57;;;4.47;;
78646;SDS011;67961;43.460;3.762;2023-02-28T12:50:02;6.18;;;4.65;;
78646;SDS011;67961;43.460;3.762;2023-02-28T12:52:47;6.90;;;4.28;;
78646;SDS011;67961;43.460;3.762;2023-02-28T12:55:27;5.20;;;4.38;;
78646;SDS011;67961;43.460;3.762;2023-02-28T12:58:05;8.10;;;4.60;;
78646;SDS011;67961;43.460;3.762;2023-02-28T13:00:35;6.80;;;4.28;;
78646;SDS011;67961;43.460;3.762;2023-02-28T13:11:29;5.15;;;3.80;;
78646;SDS011;67961;43.460;3.762;2023-02-28T13:13:57;5.30;;;3.90;;
78646;SDS011;67961;43.460;3.762;2023-02-28T13:16:23;6.35;;;4.18;;
78646;SDS011;67961;43.460;3.762;2023-02-28T13:18:49;5.22;;;4.03;;
78646;SDS011;67961;43.460;3.762;2023-02-28T13:21:22;6.57;;;4.70;;
78646;SDS011;67961;43.460;3.762;2023-02-28T13:26:22;5.30;;;4.40;;
78646;SDS011;67961;43.460;3.762;2023-02-28T13:31:14;6.03;;;4.40;;
78646;SDS011;67961;43.460;3.762;2023-02-28T13:36:30;5.25;;;3.97;;
78646;SDS011;67961;43.460;3.762;2023-02-28T13:41:49;4.70;;;3.58;;
78646;SDS011;67961;43.460;3.762;2023-02-28T13:44:22;9.02;;;4.22;;
78646;SDS011;67961;43.460;3.762;2023-02-28T13:59:30;5.80;;;4.15;;
78646;SDS011;67961;43.460;3.762;2023-02-28T14:02:08;5.55;;;3.95;;
78646;SDS011;67961;43.460;3.762;2023-02-28T14:04:46;5.50;;;4.00;;
78646;SDS011;67961;43.460;3.762;2023-02-28T14:07:18;6.53;;;3.92;;
78646;SDS011;67961;43.460;3.762;2023-02-28T14:09:46;5.38;;;4.10;;
78646;SDS011;67961;43.460;3.762;2023-02-28T14:15:00;7.07;;;4.53;;
78646;SDS011;67961;43.460;3.762;2023-02-28T14:17:26;5.28;;;3.92;;
78646;SDS011;67961;43.460;3.762;2023-02-28T14:19:52;5.93;;;4.38;;
78646;SDS011;67961;43.460;3.762;2023-02-28T14:25:20;8.00;;;5.03;;
78646;SDS011;67961;43.460;3.762;2023-02-28T14:32:51;6.22;;;5.07;;
78646;SDS011;67961;43.460;3.762;2023-02-28T14:38:13;7.15;;;4.90;;
78646;SDS011;67961;43.460;3.762;2023-02-28T14:40:40;8.02;;;5.70;;
78646;SDS011;67961;43.460;3.762;2023-02-28T14:43:18;7.07;;;5.30;;
78646;SDS011;67961;43.460;3.762;2023-02-28T14:45:47;6.90;;;5.25;;
78646;SDS011;67961;43.460;3.762;2023-02-28T14:48:15;6.93;;;4.70;;
78646;SDS011;67961;43.460;3.762;2023-02-28T14:50:42;6.53;;;4.88;;
78646;SDS011;67961;43.460;3.762;2023-02-28T14:53:15;7.90;;;4.57;;
78646;SDS011;67961;43.460;3.762;2023-02-28T14:55:46;6.70;;;4.57;;
78646;SDS011;67961;43.460;3.762;2023-02-28T14:58:31;6.60;;;4.72;;
78646;SDS011;67961;43.460;3.762;2023-02-28T15:00:59;5.57;;;4.40;;
78646;SDS011;67961;43.460;3.762;2023-02-28T15:03:35;7.47;;;5.25;;
78646;SDS011;67961;43.460;3.762;2023-02-28T15:06:03;6.45;;;4.88;;
78646;SDS011;67961;43.460;3.762;2023-02-28T15:08:30;6.97;;;4.75;;
78646;SDS011;67961;43.460;3.762;2023-02-28T15:11:13;15.48;;;4.80;;
78646;SDS011;67961;43.460;3.762;2023-02-28T15:13:49;6.63;;;4.57;;
78646;SDS011;67961;43.460;3.762;2023-02-28T15:16:20;7.57;;;4.65;;
78646;SDS011;67961;43.460;3.762;2023-02-28T15:21:20;5.72;;;4.63;;
78646;SDS011;67961;43.460;3.762;2023-02-28T15:23:51;6.68;;;4.63;;
78646;SDS011;67961;43.460;3.762;2023-02-28T15:26:20;7.32;;;5.03;;
78646;SDS011;67961;43.460;3.762;2023-02-28T15:28:47;6.38;;;4.70;;
78646;SDS011;67961;43.460;3.762;2023-02-28T15:31:21;7.60;;;4.90;;
78646;SDS011;67961;43.460;3.762;2023-02-28T15:33:53;6.30;;;4.95;;
78646;SDS011;67961;43.460;3.762;2023-02-28T15:36:19;8.13;;;4.75;;
78646;SDS011;67961;43.460;3.762;2023-02-28T15:38:51;7.72;;;4.63;;
78646;SDS011;67961;43.460;3.762;2023-02-28T15:41:36;5.65;;;4.70;;
78646;SDS011;67961;43.460;3.762;2023-02-28T15:47:02;6.63;;;4.88;;
78646;SDS011;67961;43.460;3.762;2023-02-28T15:49:39;10.00;;;5.25;;
78646;SDS011;67961;43.460;3.762;2023-02-28T15:52:05;7.97;;;5.45;;
78646;SDS011;67961;43.460;3.762;2023-02-28T15:54:32;6.57;;;5.22;;
78646;SDS011;67961;43.460;3.762;2023-02-28T15:57:12;7.55;;;4.93;;
78646;SDS011;67961;43.460;3.762;2023-02-28T15:59:39;9.15;;;4.93;;
78646;SDS011;67961;43.460;3.762;2023-02-28T16:07:34;7.13;;;5.20;;
78646;SDS011;67961;43.460;3.762;2023-02-28T16:10:01;7.53;;;5.20;;
78646;SDS011;67961;43.460;3.762;2023-02-28T16:12:28;8.75;;;6.07;;
78646;SDS011;67961;43.460;3.762;2023-02-28T16:14:55;8.18;;;4.78;;
78646;SDS011;67961;43.460;3.762;2023-02-28T16:17:26;7.07;;;5.10;;
78646;SDS011;67961;43.460;3.762;2023-02-28T16:19:53;6.57;;;5.05;;
78646;SDS011;67961;43.460;3.762;2023-02-28T16:22:19;9.00;;;5.72;;
78646;SDS011;67961;43.460;3.762;2023-02-28T16:24:45;7.80;;;5.45;;
78646;SDS011;67961;43.460;3.762;2023-02-28T16:27:26;7.50;;;5.05;;
78646;SDS011;67961;43.460;3.762;2023-02-28T16:29:54;7.05;;;5.13;;
78646;SDS011;67961;43.460;3.762;2023-02-28T16:32:20;7.03;;;5.25;;
78646;SDS011;67961;43.460;3.762;2023-02-28T16:34:46;8.00;;;4.72;;
78646;SDS011;67961;43.460;3.762;2023-02-28T16:37:13;7.28;;;5.55;;
78646;SDS011;67961;43.460;3.762;2023-02-28T16:39:40;10.40;;;5.90;;
78646;SDS011;67961;43.460;3.762;2023-02-28T16:42:06;7.10;;;5.05;;
78646;SDS011;67961;43.460;3.762;2023-02-28T16:44:33;8.25;;;5.82;;
78646;SDS011;67961;43.460;3.762;2023-02-28T16:47:00;9.52;;;6.28;;
78646;SDS011;67961;43.460;3.762;2023-02-28T16:49:27;8.50;;;6.20;;
78646;SDS011;67961;43.460;3.762;2023-02-28T16:51:53;10.65;;;5.88;;
78646;SDS011;67961;43.460;3.762;2023-02-28T16:54:19;9.07;;;5.60;;
78646;SDS011;67961;43.460;3.762;2023-02-28T16:56:46;8.70;;;6.10;;
78646;SDS011;67961;43.460;3.762;2023-02-28T16:59:12;8.85;;;6.60;;
78646;SDS011;67961;43.460;3.762;2023-02-28T17:01:39;7.60;;;5.85;;
78646;SDS011;67961;43.460;3.762;2023-02-28T17:04:05;11.10;;;6.22;;
78646;SDS011;67961;43.460;3.762;2023-02-28T17:06:31;8.65;;;5.80;;
78646;SDS011;67961;43.460;3.762;2023-02-28T17:08:57;6.40;;;5.28;;
78646;SDS011;67961;43.460;3.762;2023-02-28T17:11:27;7.70;;;4.75;;
78646;SDS011;67961;43.460;3.762;2023-02-28T17:13:53;8.65;;;5.97;;
78646;SDS011;67961;43.460;3.762;2023-02-28T17:18:51;7.65;;;5.70;;
78646;SDS011;67961;43.460;3.762;2023-02-28T17:21:18;7.18;;;5.75;;
78646;SDS011;67961;43.460;3.762;2023-02-28T17:23:44;8.00;;;5.88;;
78646;SDS011;67961;43.460;3.762;2023-02-28T17:26:14;8.38;;;5.40;;
78646;SDS011;67961;43.460;3.762;2023-02-28T17:28:41;7.85;;;6.10;;
78646;SDS011;67961;43.460;3.762;2023-02-28T17:31:07;9.13;;;6.00;;
78646;SDS011;67961;43.460;3.762;2023-02-28T17:33:33;8.27;;;5.97;;